Weather at Hutchinson Municipal Airport

Public forecast

Using degrees Fahrenheit for public forecast. Weather courtesy of forecast.io.

Current aviation weather report (METAR) for Hutchinson Municipal Airport

Retrieved 2020/09/28 03:52 UTC (1 hour ago):

KHUT 280352Z AUTO 24003KT 10SM OVC110 12/10 A3007 RMK AO2 SLP172 T01170100

Aviation forecast (TAF) for Hutchinson Municipal Airport

Retrieved 2020-09-28 00:42 UTC (4 hours ago):

TAF KHUT 272339Z 2800/2824 04011KT P6SM BKN070 TEMPO 2800/2802 6SM -SHRA BR FM280400 31010KT P6SM SCT120 FM281500 33014G22KT P6SM FEW250